sensor_id;sensor_type;location;lat;lon;timestamp;P1;durP1;ratioP1;P2;durP2;ratioP2
6642;SDS011;3357;48.050;7.800;2022-08-01T00:02:12;4.10;;;1.20;;
6642;SDS011;3357;48.050;7.800;2022-08-01T00:04:37;1.30;;;1.20;;
6642;SDS011;3357;48.050;7.800;2022-08-01T00:07:03;1.40;;;1.30;;
6642;SDS011;3357;48.050;7.800;2022-08-01T00:09:28;5.73;;;1.60;;
6642;SDS011;3357;48.050;7.800;2022-08-01T00:11:54;2.80;;;1.20;;
6642;SDS011;3357;48.050;7.800;2022-08-01T00:14:19;1.30;;;1.20;;
6642;SDS011;3357;48.050;7.800;2022-08-01T00:16:44;1.30;;;1.20;;
6642;SDS011;3357;48.050;7.800;2022-08-01T00:19:10;2.80;;;1.20;;
6642;SDS011;3357;48.050;7.800;2022-08-01T00:21:35;4.40;;;1.20;;
6642;SDS011;3357;48.050;7.800;2022-08-01T00:24:00;8.33;;;1.40;;
6642;SDS011;3357;48.050;7.800;2022-08-01T00:26:26;2.90;;;1.50;;
6642;SDS011;3357;48.050;7.800;2022-08-01T00:28:51;1.47;;;1.20;;
6642;SDS011;3357;48.050;7.800;2022-08-01T00:31:17;1.03;;;1.03;;
6642;SDS011;3357;48.050;7.800;2022-08-01T00:33:43;2.13;;;1.20;;
6642;SDS011;3357;48.050;7.800;2022-08-01T00:36:08;1.70;;;1.30;;
6642;SDS011;3357;48.050;7.800;2022-08-01T00:38:33;2.13;;;1.60;;
6642;SDS011;3357;48.050;7.800;2022-08-01T00:40:59;1.60;;;1.50;;
6642;SDS011;3357;48.050;7.800;2022-08-01T00:43:24;1.40;;;1.00;;
6642;SDS011;3357;48.050;7.800;2022-08-01T00:45:49;1.33;;;1.17;;
6642;SDS011;3357;48.050;7.800;2022-08-01T00:48:21;3.43;;;2.23;;
6642;SDS011;3357;48.050;7.800;2022-08-01T00:50:47;2.80;;;1.40;;
6642;SDS011;3357;48.050;7.800;2022-08-01T00:53:13;1.67;;;1.50;;
6642;SDS011;3357;48.050;7.800;2022-08-01T00:55:39;1.50;;;1.40;;
6642;SDS011;3357;48.050;7.800;2022-08-01T00:58:05;2.03;;;1.70;;
6642;SDS011;3357;48.050;7.800;2022-08-01T01:00:31;1.30;;;1.20;;
6642;SDS011;3357;48.050;7.800;2022-08-01T01:02:57;1.87;;;1.30;;
6642;SDS011;3357;48.050;7.800;2022-08-01T01:05:22;4.00;;;1.63;;
6642;SDS011;3357;48.050;7.800;2022-08-01T01:10:39;2.30;;;1.47;;
6642;SDS011;3357;48.050;7.800;2022-08-01T01:15:55;1.80;;;1.50;;
6642;SDS011;3357;48.050;7.800;2022-08-01T01:18:28;1.40;;;1.30;;
6642;SDS011;3357;48.050;7.800;2022-08-01T01:20:58;3.50;;;1.53;;
6642;SDS011;3357;48.050;7.800;2022-08-01T01:26:17;2.63;;;1.53;;
6642;SDS011;3357;48.050;7.800;2022-08-01T01:31:31;1.13;;;1.03;;
6642;SDS011;3357;48.050;7.800;2022-08-01T01:33:59;2.10;;;1.57;;
6642;SDS011;3357;48.050;7.800;2022-08-01T01:36:30;3.43;;;1.80;;
6642;SDS011;3357;48.050;7.800;2022-08-01T01:38:56;3.43;;;1.43;;
6642;SDS011;3357;48.050;7.800;2022-08-01T01:41:24;4.53;;;1.73;;
6642;SDS011;3357;48.050;7.800;2022-08-01T01:43:49;2.20;;;1.87;;
6642;SDS011;3357;48.050;7.800;2022-08-01T01:46:18;3.13;;;1.57;;
6642;SDS011;3357;48.050;7.800;2022-08-01T01:48:47;2.87;;;1.70;;
6642;SDS011;3357;48.050;7.800;2022-08-01T01:51:13;2.17;;;1.60;;
6642;SDS011;3357;48.050;7.800;2022-08-01T01:56:09;2.30;;;2.10;;
6642;SDS011;3357;48.050;7.800;2022-08-01T01:58:35;2.03;;;1.83;;
6642;SDS011;3357;48.050;7.800;2022-08-01T02:01:02;4.90;;;1.97;;
6642;SDS011;3357;48.050;7.800;2022-08-01T02:03:28;2.83;;;1.90;;
6642;SDS011;3357;48.050;7.800;2022-08-01T02:05:53;2.93;;;1.67;;
6642;SDS011;3357;48.050;7.800;2022-08-01T02:08:19;2.77;;;1.80;;
6642;SDS011;3357;48.050;7.800;2022-08-01T02:10:45;3.03;;;2.10;;
6642;SDS011;3357;48.050;7.800;2022-08-01T02:13:34;3.67;;;2.10;;
6642;SDS011;3357;48.050;7.800;2022-08-01T02:16:01;3.03;;;1.63;;
6642;SDS011;3357;48.050;7.800;2022-08-01T02:18:28;1.83;;;1.60;;
6642;SDS011;3357;48.050;7.800;2022-08-01T02:20:54;3.03;;;1.80;;
6642;SDS011;3357;48.050;7.800;2022-08-01T02:23:20;1.60;;;1.50;;
6642;SDS011;3357;48.050;7.800;2022-08-01T02:25:48;3.20;;;2.10;;
6642;SDS011;3357;48.050;7.800;2022-08-01T02:28:35;2.17;;;1.93;;
6642;SDS011;3357;48.050;7.800;2022-08-01T02:31:07;1.53;;;1.43;;
6642;SDS011;3357;48.050;7.800;2022-08-01T02:33:38;2.13;;;1.70;;
6642;SDS011;3357;48.050;7.800;2022-08-01T02:36:04;3.10;;;2.00;;
6642;SDS011;3357;48.050;7.800;2022-08-01T02:38:32;2.10;;;1.90;;
6642;SDS011;3357;48.050;7.800;2022-08-01T02:41:05;1.80;;;1.70;;
6642;SDS011;3357;48.050;7.800;2022-08-01T02:43:34;2.33;;;1.93;;
6642;SDS011;3357;48.050;7.800;2022-08-01T02:46:02;6.80;;;2.20;;
6642;SDS011;3357;48.050;7.800;2022-08-01T02:48:28;1.70;;;1.60;;
6642;SDS011;3357;48.050;7.800;2022-08-01T02:50:55;2.20;;;1.70;;
6642;SDS011;3357;48.050;7.800;2022-08-01T02:53:23;1.90;;;1.80;;
6642;SDS011;3357;48.050;7.800;2022-08-01T02:55:49;1.70;;;1.60;;
6642;SDS011;3357;48.050;7.800;2022-08-01T02:58:15;1.87;;;1.70;;
6642;SDS011;3357;48.050;7.800;2022-08-01T03:00:45;1.60;;;1.47;;
6642;SDS011;3357;48.050;7.800;2022-08-01T03:03:12;2.80;;;1.80;;
6642;SDS011;3357;48.050;7.800;2022-08-01T03:05:38;2.07;;;1.90;;
6642;SDS011;3357;48.050;7.800;2022-08-01T03:08:05;3.67;;;2.33;;
6642;SDS011;3357;48.050;7.800;2022-08-01T03:10:31;2.77;;;2.00;;
6642;SDS011;3357;48.050;7.800;2022-08-01T03:12:58;2.90;;;2.40;;
6642;SDS011;3357;48.050;7.800;2022-08-01T03:15:25;9.03;;;2.20;;
6642;SDS011;3357;48.050;7.800;2022-08-01T03:17:51;5.70;;;2.27;;
6642;SDS011;3357;48.050;7.800;2022-08-01T03:20:18;4.10;;;2.30;;
6642;SDS011;3357;48.050;7.800;2022-08-01T03:22:45;2.57;;;2.23;;
6642;SDS011;3357;48.050;7.800;2022-08-01T03:25:13;2.67;;;2.47;;
6642;SDS011;3357;48.050;7.800;2022-08-01T03:27:39;2.30;;;2.10;;
6642;SDS011;3357;48.050;7.800;2022-08-01T03:30:05;2.80;;;2.10;;
6642;SDS011;3357;48.050;7.800;2022-08-01T03:32:31;4.17;;;2.63;;
6642;SDS011;3357;48.050;7.800;2022-08-01T03:34:56;3.03;;;2.20;;
6642;SDS011;3357;48.050;7.800;2022-08-01T03:37:26;3.23;;;2.47;;
6642;SDS011;3357;48.050;7.800;2022-08-01T03:42:42;2.30;;;2.17;;
6642;SDS011;3357;48.050;7.800;2022-08-01T03:47:54;2.03;;;1.90;;
6642;SDS011;3357;48.050;7.800;2022-08-01T03:50:23;5.50;;;2.40;;
6642;SDS011;3357;48.050;7.800;2022-08-01T03:52:49;2.60;;;2.13;;
6642;SDS011;3357;48.050;7.800;2022-08-01T03:55:16;2.40;;;2.27;;
6642;SDS011;3357;48.050;7.800;2022-08-01T03:57:46;2.70;;;2.50;;
6642;SDS011;3357;48.050;7.800;2022-08-01T04:00:14;2.30;;;2.10;;
6642;SDS011;3357;48.050;7.800;2022-08-01T04:02:43;4.23;;;2.40;;
6642;SDS011;3357;48.050;7.800;2022-08-01T04:05:10;3.00;;;2.30;;
6642;SDS011;3357;48.050;7.800;2022-08-01T04:07:36;4.10;;;2.20;;
6642;SDS011;3357;48.050;7.800;2022-08-01T04:10:01;2.50;;;2.30;;
6642;SDS011;3357;48.050;7.800;2022-08-01T04:12:27;3.60;;;2.10;;
6642;SDS011;3357;48.050;7.800;2022-08-01T04:14:52;2.47;;;2.27;;
6642;SDS011;3357;48.050;7.800;2022-08-01T04:17:26;4.77;;;2.37;;
6642;SDS011;3357;48.050;7.800;2022-08-01T04:19:51;2.50;;;2.30;;
6642;SDS011;3357;48.050;7.800;2022-08-01T04:22:16;4.80;;;2.60;;
6642;SDS011;3357;48.050;7.800;2022-08-01T04:24:46;2.77;;;2.57;;
6642;SDS011;3357;48.050;7.800;2022-08-01T04:27:21;3.17;;;2.63;;
6642;SDS011;3357;48.050;7.800;2022-08-01T04:29:49;2.33;;;2.23;;
6642;SDS011;3357;48.050;7.800;2022-08-01T04:32:16;4.13;;;2.30;;
6642;SDS011;3357;48.050;7.800;2022-08-01T04:34:44;2.60;;;2.50;;
6642;SDS011;3357;48.050;7.800;2022-08-01T04:37:11;3.73;;;2.80;;
6642;SDS011;3357;48.050;7.800;2022-08-01T04:39:37;6.40;;;2.80;;
6642;SDS011;3357;48.050;7.800;2022-08-01T04:42:05;13.67;;;2.23;;
6642;SDS011;3357;48.050;7.800;2022-08-01T04:44:31;4.30;;;2.30;;
6642;SDS011;3357;48.050;7.800;2022-08-01T04:46:59;3.87;;;2.37;;
6642;SDS011;3357;48.050;7.800;2022-08-01T04:49:30;4.30;;;2.60;;
6642;SDS011;3357;48.050;7.800;2022-08-01T04:51:56;2.53;;;2.33;;
6642;SDS011;3357;48.050;7.800;2022-08-01T04:54:28;3.87;;;2.47;;
6642;SDS011;3357;48.050;7.800;2022-08-01T04:56:57;4.13;;;2.30;;
6642;SDS011;3357;48.050;7.800;2022-08-01T04:59:27;2.50;;;2.30;;
6642;SDS011;3357;48.050;7.800;2022-08-01T05:02:11;6.60;;;2.63;;
6642;SDS011;3357;48.050;7.800;2022-08-01T05:04:39;3.03;;;2.60;;
6642;SDS011;3357;48.050;7.800;2022-08-01T05:07:05;5.03;;;2.20;;
6642;SDS011;3357;48.050;7.800;2022-08-01T05:09:31;3.33;;;2.77;;
6642;SDS011;3357;48.050;7.800;2022-08-01T05:11:58;9.27;;;2.60;;
6642;SDS011;3357;48.050;7.800;2022-08-01T05:14:25;4.03;;;2.90;;
6642;SDS011;3357;48.050;7.800;2022-08-01T05:16:51;9.30;;;2.97;;
6642;SDS011;3357;48.050;7.800;2022-08-01T05:19:17;2.90;;;2.50;;
6642;SDS011;3357;48.050;7.800;2022-08-01T05:21:42;2.20;;;2.03;;
6642;SDS011;3357;48.050;7.800;2022-08-01T05:24:07;2.30;;;2.20;;
6642;SDS011;3357;48.050;7.800;2022-08-01T05:26:34;2.50;;;2.30;;
6642;SDS011;3357;48.050;7.800;2022-08-01T05:28:59;2.53;;;2.10;;
6642;SDS011;3357;48.050;7.800;2022-08-01T05:31:25;2.47;;;2.33;;
6642;SDS011;3357;48.050;7.800;2022-08-01T05:33:50;4.30;;;2.80;;
6642;SDS011;3357;48.050;7.800;2022-08-01T05:36:15;4.70;;;2.63;;
6642;SDS011;3357;48.050;7.800;2022-08-01T05:38:41;3.20;;;2.17;;
6642;SDS011;3357;48.050;7.800;2022-08-01T05:41:06;2.63;;;2.43;;
6642;SDS011;3357;48.050;7.800;2022-08-01T05:43:32;2.40;;;2.30;;
6642;SDS011;3357;48.050;7.800;2022-08-01T05:45:57;2.77;;;2.57;;
6642;SDS011;3357;48.050;7.800;2022-08-01T05:48:23;2.90;;;2.70;;
6642;SDS011;3357;48.050;7.800;2022-08-01T05:50:49;3.90;;;3.17;;
6642;SDS011;3357;48.050;7.800;2022-08-01T05:53:14;8.47;;;2.70;;
6642;SDS011;3357;48.050;7.800;2022-08-01T05:55:40;2.50;;;2.30;;
6642;SDS011;3357;48.050;7.800;2022-08-01T05:58:05;4.40;;;2.90;;
6642;SDS011;3357;48.050;7.800;2022-08-01T06:00:30;4.70;;;2.80;;
6642;SDS011;3357;48.050;7.800;2022-08-01T06:02:56;4.73;;;2.90;;
6642;SDS011;3357;48.050;7.800;2022-08-01T06:05:21;2.73;;;2.40;;
6642;SDS011;3357;48.050;7.800;2022-08-01T06:07:47;2.57;;;2.37;;
6642;SDS011;3357;48.050;7.800;2022-08-01T06:10:12;2.67;;;2.47;;
6642;SDS011;3357;48.050;7.800;2022-08-01T06:12:39;3.40;;;3.10;;
6642;SDS011;3357;48.050;7.800;2022-08-01T06:15:05;5.07;;;2.80;;
6642;SDS011;3357;48.050;7.800;2022-08-01T06:17:31;3.10;;;2.77;;
6642;SDS011;3357;48.050;7.800;2022-08-01T06:19:57;7.67;;;3.00;;
6642;SDS011;3357;48.050;7.800;2022-08-01T06:22:22;2.70;;;2.50;;
6642;SDS011;3357;48.050;7.800;2022-08-01T06:24:47;5.43;;;2.80;;
6642;SDS011;3357;48.050;7.800;2022-08-01T06:27:13;3.90;;;2.50;;
6642;SDS011;3357;48.050;7.800;2022-08-01T06:29:39;4.80;;;3.47;;
6642;SDS011;3357;48.050;7.800;2022-08-01T06:32:04;4.10;;;3.00;;
6642;SDS011;3357;48.050;7.800;2022-08-01T06:34:32;3.80;;;2.83;;
6642;SDS011;3357;48.050;7.800;2022-08-01T06:36:57;4.37;;;3.30;;
6642;SDS011;3357;48.050;7.800;2022-08-01T06:39:25;6.90;;;2.60;;
6642;SDS011;3357;48.050;7.800;2022-08-01T06:41:50;3.07;;;2.53;;
6642;SDS011;3357;48.050;7.800;2022-08-01T06:44:15;2.67;;;2.40;;
6642;SDS011;3357;48.050;7.800;2022-08-01T06:46:42;7.53;;;2.40;;
6642;SDS011;3357;48.050;7.800;2022-08-01T06:49:07;4.60;;;3.10;;
6642;SDS011;3357;48.050;7.800;2022-08-01T06:51:32;3.13;;;2.90;;
6642;SDS011;3357;48.050;7.800;2022-08-01T06:53:57;3.00;;;2.10;;
6642;SDS011;3357;48.050;7.800;2022-08-01T06:56:23;2.33;;;2.23;;
6642;SDS011;3357;48.050;7.800;2022-08-01T06:58:49;2.27;;;2.10;;
6642;SDS011;3357;48.050;7.800;2022-08-01T07:01:15;2.13;;;2.00;;
6642;SDS011;3357;48.050;7.800;2022-08-01T07:03:42;2.70;;;2.30;;
6642;SDS011;3357;48.050;7.800;2022-08-01T07:06:09;3.27;;;2.90;;
6642;SDS011;3357;48.050;7.800;2022-08-01T07:08:34;2.97;;;2.77;;
6642;SDS011;3357;48.050;7.800;2022-08-01T07:11:00;3.07;;;2.87;;
6642;SDS011;3357;48.050;7.800;2022-08-01T07:13:26;2.50;;;2.30;;
6642;SDS011;3357;48.050;7.800;2022-08-01T07:15:52;3.27;;;2.47;;
6642;SDS011;3357;48.050;7.800;2022-08-01T07:18:18;2.50;;;2.13;;
6642;SDS011;3357;48.050;7.800;2022-08-01T07:20:44;2.87;;;2.40;;
6642;SDS011;3357;48.050;7.800;2022-08-01T07:23:18;2.27;;;2.17;;
6642;SDS011;3357;48.050;7.800;2022-08-01T07:25:43;2.60;;;2.40;;
6642;SDS011;3357;48.050;7.800;2022-08-01T07:28:09;2.77;;;2.57;;
6642;SDS011;3357;48.050;7.800;2022-08-01T07:30:34;3.53;;;2.50;;
6642;SDS011;3357;48.050;7.800;2022-08-01T07:33:00;2.57;;;2.37;;
6642;SDS011;3357;48.050;7.800;2022-08-01T07:35:26;3.90;;;2.47;;
6642;SDS011;3357;48.050;7.800;2022-08-01T07:40:21;4.50;;;2.40;;
6642;SDS011;3357;48.050;7.800;2022-08-01T07:42:47;3.80;;;3.27;;
6642;SDS011;3357;48.050;7.800;2022-08-01T07:45:15;2.40;;;2.20;;
6642;SDS011;3357;48.050;7.800;2022-08-01T07:47:43;2.37;;;2.20;;
6642;SDS011;3357;48.050;7.800;2022-08-01T07:50:10;2.93;;;2.13;;
6642;SDS011;3357;48.050;7.800;2022-08-01T07:52:44;4.30;;;2.30;;
6642;SDS011;3357;48.050;7.800;2022-08-01T07:55:09;2.60;;;1.87;;
6642;SDS011;3357;48.050;7.800;2022-08-01T07:57:36;3.00;;;2.30;;
6642;SDS011;3357;48.050;7.800;2022-08-01T08:00:02;5.50;;;1.83;;
6642;SDS011;3357;48.050;7.800;2022-08-01T08:02:30;2.40;;;2.30;;
6642;SDS011;3357;48.050;7.800;2022-08-01T08:04:57;1.80;;;1.70;;
6642;SDS011;3357;48.050;7.800;2022-08-01T08:07:22;2.30;;;2.03;;
6642;SDS011;3357;48.050;7.800;2022-08-01T08:09:47;1.80;;;1.70;;
6642;SDS011;3357;48.050;7.800;2022-08-01T08:12:13;3.53;;;1.50;;
6642;SDS011;3357;48.050;7.800;2022-08-01T08:14:38;1.70;;;1.60;;
6642;SDS011;3357;48.050;7.800;2022-08-01T08:17:04;1.60;;;1.50;;
6642;SDS011;3357;48.050;7.800;2022-08-01T08:19:32;2.17;;;1.97;;
6642;SDS011;3357;48.050;7.800;2022-08-01T08:21:59;4.57;;;2.27;;
6642;SDS011;3357;48.050;7.800;2022-08-01T08:24:27;4.33;;;1.77;;
6642;SDS011;3357;48.050;7.800;2022-08-01T08:27:01;2.67;;;1.63;;
6642;SDS011;3357;48.050;7.800;2022-08-01T08:29:29;2.20;;;2.10;;
6642;SDS011;3357;48.050;7.800;2022-08-01T08:31:56;2.40;;;2.20;;
6642;SDS011;3357;48.050;7.800;2022-08-01T08:34:22;4.30;;;2.20;;
6642;SDS011;3357;48.050;7.800;2022-08-01T08:36:49;2.10;;;2.00;;
6642;SDS011;3357;48.050;7.800;2022-08-01T08:39:16;2.50;;;1.80;;
6642;SDS011;3357;48.050;7.800;2022-08-01T08:41:42;2.50;;;1.70;;
6642;SDS011;3357;48.050;7.800;2022-08-01T08:44:09;2.07;;;1.97;;
6642;SDS011;3357;48.050;7.800;2022-08-01T08:46:54;1.87;;;1.77;;
6642;SDS011;3357;48.050;7.800;2022-08-01T08:49:27;2.20;;;2.00;;
6642;SDS011;3357;48.050;7.800;2022-08-01T08:51:57;3.00;;;2.70;;
6642;SDS011;3357;48.050;7.800;2022-08-01T08:54:24;2.50;;;2.30;;
6642;SDS011;3357;48.050;7.800;2022-08-01T08:56:52;2.27;;;2.17;;
6642;SDS011;3357;48.050;7.800;2022-08-01T08:59:18;6.40;;;2.10;;
6642;SDS011;3357;48.050;7.800;2022-08-01T09:01:44;2.47;;;2.37;;
6642;SDS011;3357;48.050;7.800;2022-08-01T09:04:10;2.40;;;2.20;;
6642;SDS011;3357;48.050;7.800;2022-08-01T09:06:36;3.00;;;2.17;;
6642;SDS011;3357;48.050;7.800;2022-08-01T09:09:03;2.50;;;2.40;;
6642;SDS011;3357;48.050;7.800;2022-08-01T09:11:35;3.30;;;2.10;;
6642;SDS011;3357;48.050;7.800;2022-08-01T09:22:14;2.17;;;1.97;;
6642;SDS011;3357;48.050;7.800;2022-08-01T09:25:05;2.53;;;2.43;;
6642;SDS011;3357;48.050;7.800;2022-08-01T09:27:31;4.53;;;2.30;;
6642;SDS011;3357;48.050;7.800;2022-08-01T09:30:09;2.67;;;2.50;;
6642;SDS011;3357;48.050;7.800;2022-08-01T09:35:30;1.83;;;1.73;;
6642;SDS011;3357;48.050;7.800;2022-08-01T09:38:21;2.20;;;2.10;;
6642;SDS011;3357;48.050;7.800;2022-08-01T09:41:00;2.23;;;2.13;;
6642;SDS011;3357;48.050;7.800;2022-08-01T09:43:26;2.07;;;1.90;;
6642;SDS011;3357;48.050;7.800;2022-08-01T09:45:54;2.20;;;2.10;;
6642;SDS011;3357;48.050;7.800;2022-08-01T09:48:20;3.43;;;2.10;;
6642;SDS011;3357;48.050;7.800;2022-08-01T09:50:51;2.60;;;2.40;;
6642;SDS011;3357;48.050;7.800;2022-08-01T09:53:18;2.70;;;2.50;;
6642;SDS011;3357;48.050;7.800;2022-08-01T09:55:44;2.17;;;1.97;;
6642;SDS011;3357;48.050;7.800;2022-08-01T09:58:11;3.20;;;2.07;;
6642;SDS011;3357;48.050;7.800;2022-08-01T10:00:37;2.37;;;2.07;;
6642;SDS011;3357;48.050;7.800;2022-08-01T10:03:25;2.10;;;2.00;;
6642;SDS011;3357;48.050;7.800;2022-08-01T10:05:51;2.70;;;2.27;;
6642;SDS011;3357;48.050;7.800;2022-08-01T10:08:19;3.93;;;1.83;;
6642;SDS011;3357;48.050;7.800;2022-08-01T10:13:37;2.07;;;1.97;;
6642;SDS011;3357;48.050;7.800;2022-08-01T10:16:06;2.53;;;2.20;;
6642;SDS011;3357;48.050;7.800;2022-08-01T10:18:32;3.20;;;2.20;;
6642;SDS011;3357;48.050;7.800;2022-08-01T10:21:01;2.60;;;2.40;;
6642;SDS011;3357;48.050;7.800;2022-08-01T10:23:27;2.40;;;1.97;;
6642;SDS011;3357;48.050;7.800;2022-08-01T10:26:00;4.70;;;2.20;;
6642;SDS011;3357;48.050;7.800;2022-08-01T10:28:26;2.40;;;2.30;;
6642;SDS011;3357;48.050;7.800;2022-08-01T10:30:56;3.17;;;1.50;;
6642;SDS011;3357;48.050;7.800;2022-08-01T10:35:53;2.90;;;2.47;;
6642;SDS011;3357;48.050;7.800;2022-08-01T10:38:18;2.27;;;2.13;;
6642;SDS011;3357;48.050;7.800;2022-08-01T10:40:44;3.50;;;2.40;;
6642;SDS011;3357;48.050;7.800;2022-08-01T10:43:10;2.27;;;2.17;;
6642;SDS011;3357;48.050;7.800;2022-08-01T10:45:36;2.57;;;2.37;;
6642;SDS011;3357;48.050;7.800;2022-08-01T10:50:54;2.00;;;1.90;;
6642;SDS011;3357;48.050;7.800;2022-08-01T10:53:25;1.70;;;1.60;;
6642;SDS011;3357;48.050;7.800;2022-08-01T10:55:57;2.93;;;1.53;;
6642;SDS011;3357;48.050;7.800;2022-08-01T10:58:27;2.67;;;1.80;;
6642;SDS011;3357;48.050;7.800;2022-08-01T11:09:31;2.10;;;1.90;;
6642;SDS011;3357;48.050;7.800;2022-08-01T11:12:05;2.20;;;1.90;;
6642;SDS011;3357;48.050;7.800;2022-08-01T11:14:34;3.00;;;2.20;;
6642;SDS011;3357;48.050;7.800;2022-08-01T11:23:12;2.10;;;2.00;;
6642;SDS011;3357;48.050;7.800;2022-08-01T11:25:24;2.03;;;1.70;;
6642;SDS011;3357;48.050;7.800;2022-08-01T11:33:10;3.30;;;2.33;;
6642;SDS011;3357;48.050;7.800;2022-08-01T11:35:37;2.20;;;2.10;;
6642;SDS011;3357;48.050;7.800;2022-08-01T11:41:13;4.60;;;2.23;;
6642;SDS011;3357;48.050;7.800;2022-08-01T11:52:04;4.77;;;2.60;;
6642;SDS011;3357;48.050;7.800;2022-08-01T11:57:04;2.37;;;2.27;;
6642;SDS011;3357;48.050;7.800;2022-08-01T12:02:17;4.27;;;2.33;;
6642;SDS011;3357;48.050;7.800;2022-08-01T12:07:27;5.00;;;2.20;;
6642;SDS011;3357;48.050;7.800;2022-08-01T12:12:31;2.47;;;2.37;;
6642;SDS011;3357;48.050;7.800;2022-08-01T12:14:59;2.60;;;2.40;;
6642;SDS011;3357;48.050;7.800;2022-08-01T12:17:32;2.40;;;2.20;;
6642;SDS011;3357;48.050;7.800;2022-08-01T12:20:06;2.43;;;2.23;;
6642;SDS011;3357;48.050;7.800;2022-08-01T12:22:33;2.10;;;2.00;;
6642;SDS011;3357;48.050;7.800;2022-08-01T12:25:09;2.30;;;2.20;;
6642;SDS011;3357;48.050;7.800;2022-08-01T12:27:36;2.63;;;2.30;;
6642;SDS011;3357;48.050;7.800;2022-08-01T12:30:04;2.00;;;1.90;;
6642;SDS011;3357;48.050;7.800;2022-08-01T12:32:33;2.50;;;2.40;;
6642;SDS011;3357;48.050;7.800;2022-08-01T12:35:05;2.40;;;2.20;;
6642;SDS011;3357;48.050;7.800;2022-08-01T12:37:31;3.93;;;2.33;;
6642;SDS011;3357;48.050;7.800;2022-08-01T12:39:59;2.37;;;2.27;;
6642;SDS011;3357;48.050;7.800;2022-08-01T12:42:25;2.67;;;2.50;;
6642;SDS011;3357;48.050;7.800;2022-08-01T12:44:51;2.27;;;2.17;;
6642;SDS011;3357;48.050;7.800;2022-08-01T12:47:18;2.53;;;2.40;;
6642;SDS011;3357;48.050;7.800;2022-08-01T12:49:45;2.87;;;2.57;;
6642;SDS011;3357;48.050;7.800;2022-08-01T12:52:11;2.63;;;2.53;;
6642;SDS011;3357;48.050;7.800;2022-08-01T12:57:43;2.37;;;2.13;;
6642;SDS011;3357;48.050;7.800;2022-08-01T13:00:20;2.53;;;2.43;;
6642;SDS011;3357;48.050;7.800;2022-08-01T13:03:12;3.50;;;2.50;;
6642;SDS011;3357;48.050;7.800;2022-08-01T13:05:40;3.63;;;2.03;;
6642;SDS011;3357;48.050;7.800;2022-08-01T13:08:13;2.80;;;2.60;;
6642;SDS011;3357;48.050;7.800;2022-08-01T13:10:40;4.40;;;2.50;;
6642;SDS011;3357;48.050;7.800;2022-08-01T13:13:06;3.00;;;2.70;;
6642;SDS011;3357;48.050;7.800;2022-08-01T13:15:33;6.57;;;2.40;;
6642;SDS011;3357;48.050;7.800;2022-08-01T13:18:00;2.70;;;2.50;;
6642;SDS011;3357;48.050;7.800;2022-08-01T13:20:46;2.60;;;2.40;;
6642;SDS011;3357;48.050;7.800;2022-08-01T13:23:13;2.40;;;2.20;;
6642;SDS011;3357;48.050;7.800;2022-08-01T13:25:50;2.60;;;2.40;;
6642;SDS011;3357;48.050;7.800;2022-08-01T13:28:17;3.53;;;3.23;;
6642;SDS011;3357;48.050;7.800;2022-08-01T13:30:56;2.60;;;2.50;;
6642;SDS011;3357;48.050;7.800;2022-08-01T13:33:38;4.40;;;2.43;;
6642;SDS011;3357;48.050;7.800;2022-08-01T13:36:06;2.30;;;2.20;;
6642;SDS011;3357;48.050;7.800;2022-08-01T13:38:31;3.10;;;2.20;;
6642;SDS011;3357;48.050;7.800;2022-08-01T13:41:15;2.40;;;2.20;;
6642;SDS011;3357;48.050;7.800;2022-08-01T13:43:40;2.30;;;2.20;;
6642;SDS011;3357;48.050;7.800;2022-08-01T13:46:06;2.97;;;2.77;;
6642;SDS011;3357;48.050;7.800;2022-08-01T13:48:31;2.70;;;2.50;;
6642;SDS011;3357;48.050;7.800;2022-08-01T13:50:57;2.80;;;2.60;;
6642;SDS011;3357;48.050;7.800;2022-08-01T13:53:23;3.03;;;2.27;;
6642;SDS011;3357;48.050;7.800;2022-08-01T13:55:50;2.70;;;2.50;;
6642;SDS011;3357;48.050;7.800;2022-08-01T13:58:15;3.30;;;3.00;;
6642;SDS011;3357;48.050;7.800;2022-08-01T14:00:41;3.10;;;2.73;;
6642;SDS011;3357;48.050;7.800;2022-08-01T14:03:07;2.93;;;2.77;;
6642;SDS011;3357;48.050;7.800;2022-08-01T14:05:34;2.83;;;2.63;;
6642;SDS011;3357;48.050;7.800;2022-08-01T14:08:00;2.70;;;2.53;;
6642;SDS011;3357;48.050;7.800;2022-08-01T14:10:26;2.60;;;2.50;;
6642;SDS011;3357;48.050;7.800;2022-08-01T14:12:51;2.77;;;2.57;;
6642;SDS011;3357;48.050;7.800;2022-08-01T14:15:18;2.70;;;2.27;;
6642;SDS011;3357;48.050;7.800;2022-08-01T14:17:44;2.43;;;2.33;;
6642;SDS011;3357;48.050;7.800;2022-08-01T14:20:09;2.50;;;2.30;;
6642;SDS011;3357;48.050;7.800;2022-08-01T14:22:35;3.10;;;2.80;;
6642;SDS011;3357;48.050;7.800;2022-08-01T14:25:01;4.40;;;2.53;;
6642;SDS011;3357;48.050;7.800;2022-08-01T14:27:26;3.23;;;3.03;;
6642;SDS011;3357;48.050;7.800;2022-08-01T14:29:51;2.87;;;2.67;;
6642;SDS011;3357;48.050;7.800;2022-08-01T14:32:17;2.57;;;2.47;;
6642;SDS011;3357;48.050;7.800;2022-08-01T14:34:42;3.40;;;2.73;;
6642;SDS011;3357;48.050;7.800;2022-08-01T14:37:08;2.53;;;2.33;;
6642;SDS011;3357;48.050;7.800;2022-08-01T14:39:33;3.97;;;2.43;;
6642;SDS011;3357;48.050;7.800;2022-08-01T14:41:58;2.37;;;2.27;;
6642;SDS011;3357;48.050;7.800;2022-08-01T14:44:23;2.50;;;2.40;;
6642;SDS011;3357;48.050;7.800;2022-08-01T14:46:49;3.13;;;2.83;;
6642;SDS011;3357;48.050;7.800;2022-08-01T14:49:14;2.70;;;2.60;;
6642;SDS011;3357;48.050;7.800;2022-08-01T14:51:40;2.37;;;2.07;;
6642;SDS011;3357;48.050;7.800;2022-08-01T14:54:05;2.60;;;2.40;;
6642;SDS011;3357;48.050;7.800;2022-08-01T14:56:31;5.00;;;2.00;;
6642;SDS011;3357;48.050;7.800;2022-08-01T14:58:59;2.70;;;2.50;;
6642;SDS011;3357;48.050;7.800;2022-08-01T15:01:24;2.83;;;2.47;;
6642;SDS011;3357;48.050;7.800;2022-08-01T15:03:53;2.27;;;1.93;;
6642;SDS011;3357;48.050;7.800;2022-08-01T15:06:18;5.77;;;2.50;;
6642;SDS011;3357;48.050;7.800;2022-08-01T15:08:44;2.63;;;2.50;;
6642;SDS011;3357;48.050;7.800;2022-08-01T15:11:09;2.37;;;2.20;;
6642;SDS011;3357;48.050;7.800;2022-08-01T15:13:36;2.27;;;2.07;;
6642;SDS011;3357;48.050;7.800;2022-08-01T15:16:01;2.50;;;2.37;;
6642;SDS011;3357;48.050;7.800;2022-08-01T15:18:27;2.30;;;2.10;;
6642;SDS011;3357;48.050;7.800;2022-08-01T15:20:53;3.83;;;2.60;;
6642;SDS011;3357;48.050;7.800;2022-08-01T15:23:18;2.50;;;2.40;;
6642;SDS011;3357;48.050;7.800;2022-08-01T15:25:43;3.27;;;2.77;;
6642;SDS011;3357;48.050;7.800;2022-08-01T15:28:11;2.97;;;2.73;;
6642;SDS011;3357;48.050;7.800;2022-08-01T15:30:37;3.60;;;3.20;;
6642;SDS011;3357;48.050;7.800;2022-08-01T15:33:02;3.40;;;2.93;;
6642;SDS011;3357;48.050;7.800;2022-08-01T15:35:28;9.27;;;2.83;;
6642;SDS011;3357;48.050;7.800;2022-08-01T15:37:54;3.67;;;3.03;;
6642;SDS011;3357;48.050;7.800;2022-08-01T15:40:20;3.07;;;2.87;;
6642;SDS011;3357;48.050;7.800;2022-08-01T15:42:45;3.00;;;2.73;;
6642;SDS011;3357;48.050;7.800;2022-08-01T15:45:18;3.30;;;2.63;;
6642;SDS011;3357;48.050;7.800;2022-08-01T15:47:45;2.60;;;2.40;;
6642;SDS011;3357;48.050;7.800;2022-08-01T15:50:12;3.67;;;3.43;;
6642;SDS011;3357;48.050;7.800;2022-08-01T15:52:37;3.00;;;2.80;;
6642;SDS011;3357;48.050;7.800;2022-08-01T15:55:04;3.00;;;2.73;;
6642;SDS011;3357;48.050;7.800;2022-08-01T15:57:31;2.80;;;2.60;;
6642;SDS011;3357;48.050;7.800;2022-08-01T15:59:56;2.83;;;2.63;;
6642;SDS011;3357;48.050;7.800;2022-08-01T16:02:23;2.93;;;2.63;;
6642;SDS011;3357;48.050;7.800;2022-08-01T16:04:49;5.83;;;2.80;;
6642;SDS011;3357;48.050;7.800;2022-08-01T16:07:15;3.83;;;2.57;;
6642;SDS011;3357;48.050;7.800;2022-08-01T16:09:40;3.10;;;2.50;;
6642;SDS011;3357;48.050;7.800;2022-08-01T16:12:06;3.93;;;2.40;;
6642;SDS011;3357;48.050;7.800;2022-08-01T16:14:32;3.07;;;2.50;;
6642;SDS011;3357;48.050;7.800;2022-08-01T16:16:57;2.60;;;2.40;;
6642;SDS011;3357;48.050;7.800;2022-08-01T16:19:23;6.43;;;2.40;;
6642;SDS011;3357;48.050;7.800;2022-08-01T16:21:49;3.00;;;2.60;;
6642;SDS011;3357;48.050;7.800;2022-08-01T16:24:19;2.30;;;2.10;;
6642;SDS011;3357;48.050;7.800;2022-08-01T16:26:44;2.87;;;2.23;;
6642;SDS011;3357;48.050;7.800;2022-08-01T16:29:17;3.10;;;2.60;;
6642;SDS011;3357;48.050;7.800;2022-08-01T16:31:42;2.50;;;2.30;;
6642;SDS011;3357;48.050;7.800;2022-08-01T16:34:07;7.93;;;2.43;;
6642;SDS011;3357;48.050;7.800;2022-08-01T16:36:33;1.90;;;1.80;;
6642;SDS011;3357;48.050;7.800;2022-08-01T16:38:58;3.83;;;1.70;;
6642;SDS011;3357;48.050;7.800;2022-08-01T16:41:26;5.37;;;1.83;;
6642;SDS011;3357;48.050;7.800;2022-08-01T16:43:51;4.30;;;1.97;;